sensor_id;sensor_type;location;lat;lon;timestamp;P1;durP1;ratioP1;P2;durP2;ratioP2
81056;SDS011;70563;50.084;14.468;2023-07-13T00:01:45;5.95;;;3.95;;
81056;SDS011;70563;50.084;14.468;2023-07-13T00:04:14;5.00;;;3.78;;
81056;SDS011;70563;50.084;14.468;2023-07-13T00:06:40;6.70;;;4.00;;
81056;SDS011;70563;50.084;14.468;2023-07-13T00:09:09;4.35;;;3.63;;
81056;SDS011;70563;50.084;14.468;2023-07-13T00:11:37;7.03;;;4.20;;
81056;SDS011;70563;50.084;14.468;2023-07-13T00:14:03;7.78;;;4.03;;
81056;SDS011;70563;50.084;14.468;2023-07-13T00:16:28;5.78;;;3.80;;
81056;SDS011;70563;50.084;14.468;2023-07-13T00:18:54;7.28;;;3.97;;
81056;SDS011;70563;50.084;14.468;2023-07-13T00:21:19;5.07;;;4.45;;
81056;SDS011;70563;50.084;14.468;2023-07-13T00:23:44;6.40;;;3.88;;
81056;SDS011;70563;50.084;14.468;2023-07-13T00:26:10;6.68;;;4.45;;
81056;SDS011;70563;50.084;14.468;2023-07-13T00:28:37;6.47;;;4.13;;
81056;SDS011;70563;50.084;14.468;2023-07-13T00:31:02;5.57;;;3.92;;
81056;SDS011;70563;50.084;14.468;2023-07-13T00:33:28;5.80;;;4.32;;
81056;SDS011;70563;50.084;14.468;2023-07-13T00:35:57;6.63;;;4.00;;
81056;SDS011;70563;50.084;14.468;2023-07-13T00:38:23;6.63;;;4.32;;
81056;SDS011;70563;50.084;14.468;2023-07-13T00:40:48;7.15;;;4.15;;
81056;SDS011;70563;50.084;14.468;2023-07-13T00:43:19;5.25;;;4.35;;
81056;SDS011;70563;50.084;14.468;2023-07-13T00:48:11;6.23;;;4.07;;
81056;SDS011;70563;50.084;14.468;2023-07-13T00:50:39;6.93;;;4.88;;
81056;SDS011;70563;50.084;14.468;2023-07-13T00:53:06;7.47;;;4.68;;
81056;SDS011;70563;50.084;14.468;2023-07-13T00:55:32;6.18;;;4.40;;
81056;SDS011;70563;50.084;14.468;2023-07-13T00:57:58;6.13;;;4.32;;
81056;SDS011;70563;50.084;14.468;2023-07-13T01:00:24;5.43;;;4.82;;
81056;SDS011;70563;50.084;14.468;2023-07-13T01:02:51;8.07;;;4.57;;
81056;SDS011;70563;50.084;14.468;2023-07-13T01:05:17;8.30;;;4.85;;
81056;SDS011;70563;50.084;14.468;2023-07-13T01:07:45;6.22;;;4.97;;
81056;SDS011;70563;50.084;14.468;2023-07-13T01:10:13;6.97;;;4.63;;
81056;SDS011;70563;50.084;14.468;2023-07-13T01:12:39;9.40;;;5.05;;
81056;SDS011;70563;50.084;14.468;2023-07-13T01:15:04;8.07;;;5.20;;
81056;SDS011;70563;50.084;14.468;2023-07-13T01:17:50;7.07;;;5.07;;
81056;SDS011;70563;50.084;14.468;2023-07-13T01:20:16;6.40;;;4.57;;
81056;SDS011;70563;50.084;14.468;2023-07-13T01:22:42;7.20;;;5.45;;
81056;SDS011;70563;50.084;14.468;2023-07-13T01:25:07;9.45;;;5.72;;
81056;SDS011;70563;50.084;14.468;2023-07-13T01:27:33;8.43;;;5.65;;
81056;SDS011;70563;50.084;14.468;2023-07-13T01:29:59;5.88;;;5.07;;
81056;SDS011;70563;50.084;14.468;2023-07-13T01:32:28;8.90;;;5.82;;
81056;SDS011;70563;50.084;14.468;2023-07-13T01:34:56;5.90;;;5.25;;
81056;SDS011;70563;50.084;14.468;2023-07-13T01:37:22;8.77;;;5.20;;
81056;SDS011;70563;50.084;14.468;2023-07-13T01:39:51;5.13;;;4.63;;
81056;SDS011;70563;50.084;14.468;2023-07-13T01:42:17;6.10;;;5.50;;
81056;SDS011;70563;50.084;14.468;2023-07-13T01:44:42;7.13;;;4.95;;
81056;SDS011;70563;50.084;14.468;2023-07-13T01:47:08;9.25;;;6.22;;
81056;SDS011;70563;50.084;14.468;2023-07-13T01:49:33;8.38;;;5.45;;
81056;SDS011;70563;50.084;14.468;2023-07-13T01:51:59;8.00;;;5.30;;
81056;SDS011;70563;50.084;14.468;2023-07-13T01:54:24;9.18;;;4.93;;
81056;SDS011;70563;50.084;14.468;2023-07-13T01:56:50;8.73;;;6.20;;
81056;SDS011;70563;50.084;14.468;2023-07-13T01:59:15;7.68;;;5.40;;
81056;SDS011;70563;50.084;14.468;2023-07-13T02:01:40;8.50;;;4.68;;
81056;SDS011;70563;50.084;14.468;2023-07-13T02:04:06;6.28;;;5.35;;
81056;SDS011;70563;50.084;14.468;2023-07-13T02:06:31;8.20;;;4.57;;
81056;SDS011;70563;50.084;14.468;2023-07-13T02:08:57;7.53;;;5.35;;
81056;SDS011;70563;50.084;14.468;2023-07-13T02:11:23;8.38;;;5.03;;
81056;SDS011;70563;50.084;14.468;2023-07-13T02:13:49;8.50;;;5.68;;
81056;SDS011;70563;50.084;14.468;2023-07-13T02:16:15;10.60;;;4.97;;
81056;SDS011;70563;50.084;14.468;2023-07-13T02:18:40;6.45;;;5.80;;
81056;SDS011;70563;50.084;14.468;2023-07-13T02:21:06;12.55;;;5.82;;
81056;SDS011;70563;50.084;14.468;2023-07-13T02:23:31;7.55;;;5.40;;
81056;SDS011;70563;50.084;14.468;2023-07-13T02:25:57;7.65;;;5.35;;
81056;SDS011;70563;50.084;14.468;2023-07-13T02:28:23;9.35;;;5.30;;
81056;SDS011;70563;50.084;14.468;2023-07-13T02:30:49;6.60;;;5.30;;
81056;SDS011;70563;50.084;14.468;2023-07-13T02:33:14;7.03;;;5.40;;
81056;SDS011;70563;50.084;14.468;2023-07-13T02:35:40;6.07;;;4.85;;
81056;SDS011;70563;50.084;14.468;2023-07-13T02:38:05;9.07;;;5.22;;
81056;SDS011;70563;50.084;14.468;2023-07-13T02:40:31;8.75;;;5.70;;
81056;SDS011;70563;50.084;14.468;2023-07-13T02:42:58;7.43;;;6.13;;
81056;SDS011;70563;50.084;14.468;2023-07-13T02:45:24;7.90;;;5.63;;
81056;SDS011;70563;50.084;14.468;2023-07-13T02:47:49;7.05;;;5.63;;
81056;SDS011;70563;50.084;14.468;2023-07-13T02:50:15;7.38;;;5.40;;
81056;SDS011;70563;50.084;14.468;2023-07-13T02:52:40;7.72;;;5.75;;
81056;SDS011;70563;50.084;14.468;2023-07-13T02:55:06;7.63;;;5.10;;
81056;SDS011;70563;50.084;14.468;2023-07-13T02:57:31;7.45;;;5.82;;
81056;SDS011;70563;50.084;14.468;2023-07-13T02:59:58;8.73;;;5.65;;
81056;SDS011;70563;50.084;14.468;2023-07-13T03:02:24;8.13;;;5.20;;
81056;SDS011;70563;50.084;14.468;2023-07-13T03:04:50;9.77;;;5.97;;
81056;SDS011;70563;50.084;14.468;2023-07-13T03:07:15;6.70;;;6.00;;
81056;SDS011;70563;50.084;14.468;2023-07-13T03:09:40;8.50;;;6.35;;
81056;SDS011;70563;50.084;14.468;2023-07-13T03:12:06;8.55;;;5.40;;
81056;SDS011;70563;50.084;14.468;2023-07-13T03:14:32;8.48;;;6.13;;
81056;SDS011;70563;50.084;14.468;2023-07-13T03:16:57;8.18;;;6.28;;
81056;SDS011;70563;50.084;14.468;2023-07-13T03:19:22;10.32;;;6.50;;
81056;SDS011;70563;50.084;14.468;2023-07-13T03:21:48;7.80;;;5.85;;
81056;SDS011;70563;50.084;14.468;2023-07-13T03:24:13;8.45;;;5.43;;
81056;SDS011;70563;50.084;14.468;2023-07-13T03:26:38;8.23;;;5.95;;
81056;SDS011;70563;50.084;14.468;2023-07-13T03:29:04;8.15;;;5.93;;
81056;SDS011;70563;50.084;14.468;2023-07-13T03:31:33;10.80;;;6.93;;
81056;SDS011;70563;50.084;14.468;2023-07-13T03:34:00;8.15;;;6.57;;
81056;SDS011;70563;50.084;14.468;2023-07-13T03:36:26;8.43;;;5.93;;
81056;SDS011;70563;50.084;14.468;2023-07-13T03:38:54;8.02;;;5.65;;
81056;SDS011;70563;50.084;14.468;2023-07-13T03:41:21;6.30;;;5.00;;
81056;SDS011;70563;50.084;14.468;2023-07-13T03:43:48;10.10;;;6.07;;
81056;SDS011;70563;50.084;14.468;2023-07-13T03:46:14;6.72;;;4.85;;
81056;SDS011;70563;50.084;14.468;2023-07-13T03:48:41;6.03;;;4.25;;
81056;SDS011;70563;50.084;14.468;2023-07-13T03:51:08;7.68;;;3.75;;
81056;SDS011;70563;50.084;14.468;2023-07-13T03:53:37;5.47;;;2.90;;
81056;SDS011;70563;50.084;14.468;2023-07-13T03:56:04;4.78;;;2.97;;
81056;SDS011;70563;50.084;14.468;2023-07-13T03:58:37;5.25;;;2.83;;
81056;SDS011;70563;50.084;14.468;2023-07-13T04:01:05;4.35;;;2.90;;
81056;SDS011;70563;50.084;14.468;2023-07-13T04:03:32;6.80;;;2.65;;
81056;SDS011;70563;50.084;14.468;2023-07-13T04:05:59;4.28;;;2.78;;
81056;SDS011;70563;50.084;14.468;2023-07-13T04:08:29;3.28;;;2.33;;
81056;SDS011;70563;50.084;14.468;2023-07-13T04:10:56;4.88;;;2.58;;
81056;SDS011;70563;50.084;14.468;2023-07-13T04:13:22;4.65;;;2.15;;
81056;SDS011;70563;50.084;14.468;2023-07-13T04:15:48;4.90;;;2.15;;
81056;SDS011;70563;50.084;14.468;2023-07-13T04:18:14;4.40;;;2.55;;
81056;SDS011;70563;50.084;14.468;2023-07-13T04:20:39;4.80;;;2.47;;
81056;SDS011;70563;50.084;14.468;2023-07-13T04:23:05;7.85;;;2.13;;
81056;SDS011;70563;50.084;14.468;2023-07-13T04:25:30;3.80;;;2.08;;
81056;SDS011;70563;50.084;14.468;2023-07-13T04:27:55;3.38;;;2.17;;
81056;SDS011;70563;50.084;14.468;2023-07-13T04:30:21;5.53;;;2.10;;
81056;SDS011;70563;50.084;14.468;2023-07-13T04:32:47;3.03;;;2.70;;
81056;SDS011;70563;50.084;14.468;2023-07-13T04:35:13;2.50;;;2.10;;
81056;SDS011;70563;50.084;14.468;2023-07-13T04:37:39;4.38;;;2.13;;
81056;SDS011;70563;50.084;14.468;2023-07-13T04:40:05;2.38;;;2.03;;
81056;SDS011;70563;50.084;14.468;2023-07-13T04:42:31;7.47;;;2.30;;
81056;SDS011;70563;50.084;14.468;2023-07-13T04:44:56;4.70;;;2.63;;
81056;SDS011;70563;50.084;14.468;2023-07-13T04:47:22;4.90;;;2.25;;
81056;SDS011;70563;50.084;14.468;2023-07-13T04:49:47;5.00;;;2.20;;
81056;SDS011;70563;50.084;14.468;2023-07-13T04:52:12;3.00;;;2.20;;
81056;SDS011;70563;50.084;14.468;2023-07-13T04:54:38;4.38;;;2.35;;
81056;SDS011;70563;50.084;14.468;2023-07-13T04:57:04;4.18;;;2.50;;
81056;SDS011;70563;50.084;14.468;2023-07-13T04:59:33;2.67;;;2.03;;
81056;SDS011;70563;50.084;14.468;2023-07-13T05:01:59;9.38;;;2.80;;
81056;SDS011;70563;50.084;14.468;2023-07-13T05:04:24;4.35;;;2.47;;
81056;SDS011;70563;50.084;14.468;2023-07-13T05:06:50;3.15;;;2.30;;
81056;SDS011;70563;50.084;14.468;2023-07-13T05:09:16;4.15;;;3.10;;
81056;SDS011;70563;50.084;14.468;2023-07-13T05:11:41;3.67;;;2.40;;
81056;SDS011;70563;50.084;14.468;2023-07-13T05:14:07;2.88;;;2.40;;
81056;SDS011;70563;50.084;14.468;2023-07-13T05:16:34;3.42;;;2.35;;
81056;SDS011;70563;50.084;14.468;2023-07-13T05:19:00;4.00;;;2.78;;
81056;SDS011;70563;50.084;14.468;2023-07-13T05:21:25;4.50;;;2.40;;
81056;SDS011;70563;50.084;14.468;2023-07-13T05:23:50;3.00;;;2.60;;
81056;SDS011;70563;50.084;14.468;2023-07-13T05:26:16;5.80;;;2.55;;
81056;SDS011;70563;50.084;14.468;2023-07-13T05:28:41;4.97;;;2.28;;
81056;SDS011;70563;50.084;14.468;2023-07-13T05:31:07;3.88;;;2.83;;
81056;SDS011;70563;50.084;14.468;2023-07-13T05:33:33;4.18;;;2.88;;
81056;SDS011;70563;50.084;14.468;2023-07-13T05:35:59;3.80;;;2.88;;
81056;SDS011;70563;50.084;14.468;2023-07-13T05:38:25;3.78;;;2.92;;
81056;SDS011;70563;50.084;14.468;2023-07-13T05:40:53;6.00;;;3.28;;
81056;SDS011;70563;50.084;14.468;2023-07-13T05:43:19;4.35;;;2.38;;
81056;SDS011;70563;50.084;14.468;2023-07-13T05:45:44;4.78;;;2.90;;
81056;SDS011;70563;50.084;14.468;2023-07-13T05:48:10;3.17;;;2.85;;
81056;SDS011;70563;50.084;14.468;2023-07-13T05:50:35;3.78;;;2.42;;
81056;SDS011;70563;50.084;14.468;2023-07-13T05:53:01;8.05;;;2.58;;
81056;SDS011;70563;50.084;14.468;2023-07-13T05:55:26;6.55;;;3.40;;
81056;SDS011;70563;50.084;14.468;2023-07-13T05:57:51;4.38;;;2.70;;
81056;SDS011;70563;50.084;14.468;2023-07-13T06:00:17;5.50;;;2.60;;
81056;SDS011;70563;50.084;14.468;2023-07-13T06:02:42;2.53;;;2.22;;
81056;SDS011;70563;50.084;14.468;2023-07-13T06:05:08;4.45;;;2.75;;
81056;SDS011;70563;50.084;14.468;2023-07-13T06:07:34;3.33;;;2.30;;
81056;SDS011;70563;50.084;14.468;2023-07-13T06:09:59;3.45;;;2.42;;
81056;SDS011;70563;50.084;14.468;2023-07-13T06:12:25;15.70;;;3.30;;
81056;SDS011;70563;50.084;14.468;2023-07-13T06:14:51;6.72;;;3.08;;
81056;SDS011;70563;50.084;14.468;2023-07-13T06:17:16;3.63;;;2.17;;
81056;SDS011;70563;50.084;14.468;2023-07-13T06:19:42;2.85;;;2.33;;
81056;SDS011;70563;50.084;14.468;2023-07-13T06:22:07;6.20;;;2.65;;
81056;SDS011;70563;50.084;14.468;2023-07-13T06:24:32;3.88;;;2.25;;
81056;SDS011;70563;50.084;14.468;2023-07-13T06:26:58;6.53;;;3.03;;
81056;SDS011;70563;50.084;14.468;2023-07-13T06:29:23;6.40;;;2.10;;
81056;SDS011;70563;50.084;14.468;2023-07-13T06:31:49;5.07;;;2.60;;
81056;SDS011;70563;50.084;14.468;2023-07-13T06:34:14;4.40;;;2.25;;
81056;SDS011;70563;50.084;14.468;2023-07-13T06:36:42;4.13;;;2.95;;
81056;SDS011;70563;50.084;14.468;2023-07-13T06:39:09;5.00;;;3.30;;
81056;SDS011;70563;50.084;14.468;2023-07-13T06:41:34;4.40;;;2.00;;
81056;SDS011;70563;50.084;14.468;2023-07-13T06:44:00;5.43;;;2.35;;
81056;SDS011;70563;50.084;14.468;2023-07-13T06:46:25;5.47;;;2.90;;
81056;SDS011;70563;50.084;14.468;2023-07-13T06:48:51;2.42;;;2.20;;
81056;SDS011;70563;50.084;14.468;2023-07-13T06:51:16;4.50;;;2.63;;
81056;SDS011;70563;50.084;14.468;2023-07-13T06:53:42;3.97;;;2.70;;
81056;SDS011;70563;50.084;14.468;2023-07-13T06:56:08;3.22;;;2.22;;
81056;SDS011;70563;50.084;14.468;2023-07-13T06:58:35;4.97;;;2.58;;
81056;SDS011;70563;50.084;14.468;2023-07-13T07:01:01;5.45;;;2.25;;
81056;SDS011;70563;50.084;14.468;2023-07-13T07:03:29;3.83;;;2.22;;
81056;SDS011;70563;50.084;14.468;2023-07-13T07:05:59;4.15;;;2.22;;
81056;SDS011;70563;50.084;14.468;2023-07-13T07:08:26;3.78;;;2.47;;
81056;SDS011;70563;50.084;14.468;2023-07-13T07:10:51;6.57;;;3.95;;
81056;SDS011;70563;50.084;14.468;2023-07-13T07:13:19;5.05;;;2.28;;
81056;SDS011;70563;50.084;14.468;2023-07-13T07:15:44;2.85;;;2.28;;
81056;SDS011;70563;50.084;14.468;2023-07-13T07:18:10;2.70;;;1.90;;
81056;SDS011;70563;50.084;14.468;2023-07-13T07:20:35;7.55;;;2.30;;
81056;SDS011;70563;50.084;14.468;2023-07-13T07:23:00;3.92;;;2.10;;
81056;SDS011;70563;50.084;14.468;2023-07-13T07:25:26;2.22;;;1.98;;
81056;SDS011;70563;50.084;14.468;2023-07-13T07:27:51;5.63;;;2.55;;
81056;SDS011;70563;50.084;14.468;2023-07-13T07:30:17;4.93;;;2.22;;
81056;SDS011;70563;50.084;14.468;2023-07-13T07:32:42;4.82;;;1.98;;
81056;SDS011;70563;50.084;14.468;2023-07-13T07:35:08;4.93;;;2.10;;
81056;SDS011;70563;50.084;14.468;2023-07-13T07:37:33;2.97;;;2.17;;
81056;SDS011;70563;50.084;14.468;2023-07-13T07:39:58;2.70;;;2.05;;
81056;SDS011;70563;50.084;14.468;2023-07-13T07:42:24;3.70;;;2.00;;
81056;SDS011;70563;50.084;14.468;2023-07-13T07:44:50;4.45;;;2.30;;
81056;SDS011;70563;50.084;14.468;2023-07-13T07:47:15;2.80;;;2.10;;
81056;SDS011;70563;50.084;14.468;2023-07-13T07:49:40;3.42;;;2.00;;
81056;SDS011;70563;50.084;14.468;2023-07-13T07:52:06;3.08;;;1.90;;
81056;SDS011;70563;50.084;14.468;2023-07-13T07:54:32;4.10;;;1.73;;
81056;SDS011;70563;50.084;14.468;2023-07-13T07:57:00;3.95;;;1.75;;
81056;SDS011;70563;50.084;14.468;2023-07-13T07:59:26;2.10;;;1.80;;
81056;SDS011;70563;50.084;14.468;2023-07-13T08:01:51;2.28;;;2.08;;
81056;SDS011;70563;50.084;14.468;2023-07-13T08:04:16;4.88;;;2.28;;
81056;SDS011;70563;50.084;14.468;2023-07-13T08:06:42;3.08;;;2.38;;
81056;SDS011;70563;50.084;14.468;2023-07-13T08:09:07;3.80;;;1.90;;
81056;SDS011;70563;50.084;14.468;2023-07-13T08:11:33;2.28;;;1.90;;
81056;SDS011;70563;50.084;14.468;2023-07-13T08:13:59;2.33;;;1.92;;
81056;SDS011;70563;50.084;14.468;2023-07-13T08:16:25;4.10;;;2.08;;
81056;SDS011;70563;50.084;14.468;2023-07-13T08:18:51;5.13;;;1.70;;
81056;SDS011;70563;50.084;14.468;2023-07-13T08:21:16;4.75;;;2.40;;
81056;SDS011;70563;50.084;14.468;2023-07-13T08:23:44;3.47;;;1.90;;
81056;SDS011;70563;50.084;14.468;2023-07-13T08:26:10;2.90;;;1.45;;
81056;SDS011;70563;50.084;14.468;2023-07-13T08:28:35;8.65;;;3.65;;
81056;SDS011;70563;50.084;14.468;2023-07-13T08:31:04;3.33;;;1.90;;
81056;SDS011;70563;50.084;14.468;2023-07-13T08:33:32;3.70;;;2.17;;
81056;SDS011;70563;50.084;14.468;2023-07-13T08:35:59;3.00;;;2.03;;
81056;SDS011;70563;50.084;14.468;2023-07-13T08:38:24;4.18;;;2.05;;
81056;SDS011;70563;50.084;14.468;2023-07-13T08:40:54;4.90;;;2.30;;
81056;SDS011;70563;50.084;14.468;2023-07-13T08:43:30;3.00;;;1.63;;
81056;SDS011;70563;50.084;14.468;2023-07-13T08:48:49;4.30;;;1.73;;
81056;SDS011;70563;50.084;14.468;2023-07-13T08:54:32;4.80;;;1.80;;
81056;SDS011;70563;50.084;14.468;2023-07-13T08:57:03;3.45;;;1.80;;
81056;SDS011;70563;50.084;14.468;2023-07-13T08:59:46;3.40;;;1.75;;
81056;SDS011;70563;50.084;14.468;2023-07-13T09:02:20;3.55;;;2.03;;
81056;SDS011;70563;50.084;14.468;2023-07-13T09:17:51;2.60;;;1.95;;
81056;SDS011;70563;50.084;14.468;2023-07-13T09:22:57;3.55;;;2.03;;
81056;SDS011;70563;50.084;14.468;2023-07-13T09:25:29;3.03;;;1.90;;
81056;SDS011;70563;50.084;14.468;2023-07-13T09:28:00;3.67;;;1.80;;
81056;SDS011;70563;50.084;14.468;2023-07-13T09:30:39;2.65;;;1.70;;
81056;SDS011;70563;50.084;14.468;2023-07-13T09:33:09;3.13;;;1.58;;
81056;SDS011;70563;50.084;14.468;2023-07-13T09:35:34;4.78;;;1.88;;
81056;SDS011;70563;50.084;14.468;2023-07-13T09:38:19;2.40;;;1.60;;
81056;SDS011;70563;50.084;14.468;2023-07-13T09:43:34;3.67;;;1.65;;
81056;SDS011;70563;50.084;14.468;2023-07-13T09:45:59;2.97;;;1.60;;
81056;SDS011;70563;50.084;14.468;2023-07-13T09:48:25;3.33;;;1.63;;
81056;SDS011;70563;50.084;14.468;2023-07-13T09:50:58;3.75;;;1.60;;
81056;SDS011;70563;50.084;14.468;2023-07-13T09:53:37;3.90;;;1.88;;
81056;SDS011;70563;50.084;14.468;2023-07-13T09:56:03;2.28;;;1.80;;
81056;SDS011;70563;50.084;14.468;2023-07-13T09:58:51;3.47;;;1.25;;
81056;SDS011;70563;50.084;14.468;2023-07-13T10:01:30;2.10;;;1.48;;
81056;SDS011;70563;50.084;14.468;2023-07-13T10:06:24;2.17;;;1.80;;
81056;SDS011;70563;50.084;14.468;2023-07-13T10:08:51;1.98;;;1.40;;
81056;SDS011;70563;50.084;14.468;2023-07-13T10:11:21;2.63;;;1.38;;
81056;SDS011;70563;50.084;14.468;2023-07-13T10:13:53;2.85;;;1.60;;
81056;SDS011;70563;50.084;14.468;2023-07-13T10:16:24;1.83;;;1.60;;
81056;SDS011;70563;50.084;14.468;2023-07-13T10:18:53;3.78;;;1.70;;
81056;SDS011;70563;50.084;14.468;2023-07-13T10:21:22;1.48;;;1.27;;
81056;SDS011;70563;50.084;14.468;2023-07-13T10:23:55;3.08;;;1.42;;
81056;SDS011;70563;50.084;14.468;2023-07-13T10:26:32;1.85;;;1.10;;
81056;SDS011;70563;50.084;14.468;2023-07-13T10:29:03;2.30;;;1.50;;
81056;SDS011;70563;50.084;14.468;2023-07-13T10:31:36;3.20;;;1.60;;
81056;SDS011;70563;50.084;14.468;2023-07-13T10:34:03;3.28;;;1.52;;
81056;SDS011;70563;50.084;14.468;2023-07-13T10:36:34;2.65;;;1.70;;
81056;SDS011;70563;50.084;14.468;2023-07-13T10:39:05;3.78;;;1.50;;
81056;SDS011;70563;50.084;14.468;2023-07-13T10:41:35;4.72;;;1.77;;
81056;SDS011;70563;50.084;14.468;2023-07-13T10:44:05;2.63;;;1.30;;
81056;SDS011;70563;50.084;14.468;2023-07-13T10:46:42;2.97;;;1.40;;
81056;SDS011;70563;50.084;14.468;2023-07-13T10:49:09;1.90;;;1.50;;
81056;SDS011;70563;50.084;14.468;2023-07-13T10:51:36;3.05;;;1.48;;
81056;SDS011;70563;50.084;14.468;2023-07-13T10:54:18;3.38;;;1.58;;
81056;SDS011;70563;50.084;14.468;2023-07-13T10:56:52;3.22;;;1.48;;
81056;SDS011;70563;50.084;14.468;2023-07-13T10:59:33;2.88;;;1.73;;
81056;SDS011;70563;50.084;14.468;2023-07-13T11:02:06;2.50;;;1.27;;
81056;SDS011;70563;50.084;14.468;2023-07-13T11:04:45;4.28;;;1.80;;
81056;SDS011;70563;50.084;14.468;2023-07-13T11:07:22;2.15;;;1.50;;
81056;SDS011;70563;50.084;14.468;2023-07-13T11:09:54;2.05;;;1.20;;
81056;SDS011;70563;50.084;14.468;2023-07-13T11:20:42;2.70;;;2.10;;
81056;SDS011;70563;50.084;14.468;2023-07-13T11:22:52;1.73;;;1.40;;
81056;SDS011;70563;50.084;14.468;2023-07-13T11:25:33;3.60;;;1.30;;
81056;SDS011;70563;50.084;14.468;2023-07-13T11:33:12;1.63;;;1.35;;
81056;SDS011;70563;50.084;14.468;2023-07-13T11:38:41;3.45;;;1.50;;
81056;SDS011;70563;50.084;14.468;2023-07-13T11:41:18;4.90;;;1.40;;
81056;SDS011;70563;50.084;14.468;2023-07-13T11:43:48;1.92;;;1.30;;
81056;SDS011;70563;50.084;14.468;2023-07-13T11:48:46;2.75;;;1.15;;
81056;SDS011;70563;50.084;14.468;2023-07-13T11:51:29;2.75;;;1.40;;
81056;SDS011;70563;50.084;14.468;2023-07-13T11:53:57;2.63;;;1.30;;
81056;SDS011;70563;50.084;14.468;2023-07-13T11:56:27;2.08;;;1.10;;
81056;SDS011;70563;50.084;14.468;2023-07-13T11:58:54;2.42;;;1.50;;
81056;SDS011;70563;50.084;14.468;2023-07-13T12:01:23;2.30;;;1.50;;
81056;SDS011;70563;50.084;14.468;2023-07-13T12:03:51;3.50;;;1.40;;
81056;SDS011;70563;50.084;14.468;2023-07-13T12:06:26;4.90;;;1.90;;
81056;SDS011;70563;50.084;14.468;2023-07-13T12:08:58;2.05;;;1.30;;
81056;SDS011;70563;50.084;14.468;2023-07-13T12:11:25;3.05;;;1.40;;
81056;SDS011;70563;50.084;14.468;2023-07-13T12:13:51;2.58;;;1.42;;
81056;SDS011;70563;50.084;14.468;2023-07-13T12:16:22;3.63;;;1.85;;
81056;SDS011;70563;50.084;14.468;2023-07-13T12:18:48;2.65;;;1.58;;
81056;SDS011;70563;50.084;14.468;2023-07-13T12:21:17;3.00;;;1.80;;
81056;SDS011;70563;50.084;14.468;2023-07-13T12:23:44;3.30;;;1.63;;
81056;SDS011;70563;50.084;14.468;2023-07-13T12:26:14;3.35;;;1.70;;
81056;SDS011;70563;50.084;14.468;2023-07-13T12:28:46;1.63;;;1.50;;
81056;SDS011;70563;50.084;14.468;2023-07-13T12:34:18;5.35;;;2.58;;
81056;SDS011;70563;50.084;14.468;2023-07-13T12:36:51;2.88;;;1.58;;
81056;SDS011;70563;50.084;14.468;2023-07-13T12:39:36;2.03;;;1.50;;
81056;SDS011;70563;50.084;14.468;2023-07-13T12:44:52;2.97;;;1.30;;
81056;SDS011;70563;50.084;14.468;2023-07-13T12:47:30;2.80;;;1.30;;
81056;SDS011;70563;50.084;14.468;2023-07-13T12:49:59;2.15;;;1.55;;
81056;SDS011;70563;50.084;14.468;2023-07-13T12:55:07;4.32;;;1.27;;
81056;SDS011;70563;50.084;14.468;2023-07-13T12:57:40;2.95;;;1.50;;
81056;SDS011;70563;50.084;14.468;2023-07-13T13:02:50;3.35;;;1.48;;
81056;SDS011;70563;50.084;14.468;2023-07-13T13:05:17;5.47;;;1.65;;
81056;SDS011;70563;50.084;14.468;2023-07-13T13:07:43;4.10;;;2.00;;
81056;SDS011;70563;50.084;14.468;2023-07-13T13:10:11;3.10;;;1.40;;
81056;SDS011;70563;50.084;14.468;2023-07-13T13:12:38;4.68;;;1.67;;
81056;SDS011;70563;50.084;14.468;2023-07-13T13:15:08;2.15;;;1.55;;
81056;SDS011;70563;50.084;14.468;2023-07-13T13:17:34;3.22;;;1.88;;
81056;SDS011;70563;50.084;14.468;2023-07-13T13:19:59;5.20;;;1.67;;
81056;SDS011;70563;50.084;14.468;2023-07-13T13:22:25;1.92;;;1.30;;
81056;SDS011;70563;50.084;14.468;2023-07-13T13:24:50;3.05;;;1.40;;
81056;SDS011;70563;50.084;14.468;2023-07-13T13:27:22;1.70;;;1.30;;
81056;SDS011;70563;50.084;14.468;2023-07-13T13:29:51;2.00;;;1.20;;
81056;SDS011;70563;50.084;14.468;2023-07-13T13:32:18;3.35;;;1.40;;
81056;SDS011;70563;50.084;14.468;2023-07-13T13:34:44;2.65;;;1.60;;
81056;SDS011;70563;50.084;14.468;2023-07-13T13:37:28;2.88;;;1.63;;
81056;SDS011;70563;50.084;14.468;2023-07-13T13:39:53;3.42;;;2.00;;
81056;SDS011;70563;50.084;14.468;2023-07-13T13:42:20;2.53;;;1.35;;
81056;SDS011;70563;50.084;14.468;2023-07-13T13:44:47;2.33;;;1.50;;
81056;SDS011;70563;50.084;14.468;2023-07-13T13:47:34;3.45;;;2.03;;
81056;SDS011;70563;50.084;14.468;2023-07-13T13:52:26;2.35;;;1.45;;
81056;SDS011;70563;50.084;14.468;2023-07-13T13:54:51;3.15;;;1.55;;
81056;SDS011;70563;50.084;14.468;2023-07-13T13:57:22;2.17;;;1.70;;
81056;SDS011;70563;50.084;14.468;2023-07-13T13:59:51;3.88;;;1.90;;
81056;SDS011;70563;50.084;14.468;2023-07-13T14:02:35;1.70;;;1.40;;
81056;SDS011;70563;50.084;14.468;2023-07-13T14:05:01;3.25;;;1.60;;
81056;SDS011;70563;50.084;14.468;2023-07-13T14:07:28;2.35;;;1.40;;
81056;SDS011;70563;50.084;14.468;2023-07-13T14:09:58;2.63;;;1.50;;
81056;SDS011;70563;50.084;14.468;2023-07-13T14:12:25;2.03;;;1.60;;
81056;SDS011;70563;50.084;14.468;2023-07-13T14:14:54;1.90;;;1.40;;
81056;SDS011;70563;50.084;14.468;2023-07-13T14:17:21;2.08;;;1.55;;
81056;SDS011;70563;50.084;14.468;2023-07-13T14:19:49;2.20;;;1.50;;
81056;SDS011;70563;50.084;14.468;2023-07-13T14:22:16;2.30;;;1.77;;
81056;SDS011;70563;50.084;14.468;2023-07-13T14:24:43;5.30;;;2.10;;
81056;SDS011;70563;50.084;14.468;2023-07-13T14:27:09;2.00;;;1.50;;
81056;SDS011;70563;50.084;14.468;2023-07-13T14:29:36;3.53;;;1.77;;
81056;SDS011;70563;50.084;14.468;2023-07-13T14:32:01;3.33;;;1.60;;
81056;SDS011;70563;50.084;14.468;2023-07-13T14:34:27;4.78;;;1.83;;
81056;SDS011;70563;50.084;14.468;2023-07-13T14:36:53;3.45;;;1.60;;
81056;SDS011;70563;50.084;14.468;2023-07-13T14:39:19;5.40;;;1.83;;
81056;SDS011;70563;50.084;14.468;2023-07-13T14:41:49;5.72;;;1.83;;
81056;SDS011;70563;50.084;14.468;2023-07-13T14:46:42;3.03;;;1.90;;
81056;SDS011;70563;50.084;14.468;2023-07-13T14:51:42;2.70;;;1.50;;
81056;SDS011;70563;50.084;14.468;2023-07-13T14:54:08;1.35;;;1.23;;
81056;SDS011;70563;50.084;14.468;2023-07-13T14:56:33;2.38;;;1.60;;
81056;SDS011;70563;50.084;14.468;2023-07-13T14:58:59;5.25;;;1.67;;
81056;SDS011;70563;50.084;14.468;2023-07-13T15:01:25;2.33;;;1.58;;
81056;SDS011;70563;50.084;14.468;2023-07-13T15:03:51;2.20;;;1.70;;
81056;SDS011;70563;50.084;14.468;2023-07-13T15:06:17;2.28;;;1.58;;
81056;SDS011;70563;50.084;14.468;2023-07-13T15:08:44;3.05;;;1.52;;
81056;SDS011;70563;50.084;14.468;2023-07-13T15:11:09;2.38;;;1.50;;
81056;SDS011;70563;50.084;14.468;2023-07-13T15:13:37;2.83;;;1.80;;
81056;SDS011;70563;50.084;14.468;2023-07-13T15:16:04;3.53;;;2.08;;
81056;SDS011;70563;50.084;14.468;2023-07-13T15:18:30;2.75;;;1.95;;
81056;SDS011;70563;50.084;14.468;2023-07-13T15:20:55;1.92;;;1.70;;
81056;SDS011;70563;50.084;14.468;2023-07-13T15:23:25;3.60;;;1.60;;
81056;SDS011;70563;50.084;14.468;2023-07-13T15:25:51;3.55;;;1.73;;
81056;SDS011;70563;50.084;14.468;2023-07-13T15:28:17;2.58;;;1.80;;
81056;SDS011;70563;50.084;14.468;2023-07-13T15:30:43;3.85;;;1.90;;
81056;SDS011;70563;50.084;14.468;2023-07-13T15:33:11;3.78;;;1.75;;
81056;SDS011;70563;50.084;14.468;2023-07-13T15:35:44;2.42;;;1.80;;
81056;SDS011;70563;50.084;14.468;2023-07-13T15:38:15;2.90;;;1.63;;
81056;SDS011;70563;50.084;14.468;2023-07-13T15:40:41;3.50;;;1.52;;
81056;SDS011;70563;50.084;14.468;2023-07-13T15:43:10;2.28;;;1.60;;